sensor_id;sensor_type;location;lat;lon;timestamp;P1;durP1;ratioP1;P2;durP2;ratioP2
58260;SDS011;44058;52.898;6.502;2023-04-25T00:00:06;15.82;;;3.30;;
58260;SDS011;44058;52.898;6.502;2023-04-25T00:02:32;16.73;;;3.85;;
58260;SDS011;44058;52.898;6.502;2023-04-25T00:05:00;15.00;;;3.83;;
58260;SDS011;44058;52.898;6.502;2023-04-25T00:07:26;12.85;;;3.20;;
58260;SDS011;44058;52.898;6.502;2023-04-25T00:09:53;15.13;;;3.67;;
58260;SDS011;44058;52.898;6.502;2023-04-25T00:12:19;17.42;;;3.75;;
58260;SDS011;44058;52.898;6.502;2023-04-25T00:14:46;13.18;;;3.25;;
58260;SDS011;44058;52.898;6.502;2023-04-25T00:17:14;10.98;;;3.10;;
58260;SDS011;44058;52.898;6.502;2023-04-25T00:19:41;14.30;;;3.50;;
58260;SDS011;44058;52.898;6.502;2023-04-25T00:22:10;14.18;;;3.97;;
58260;SDS011;44058;52.898;6.502;2023-04-25T00:24:37;15.30;;;3.20;;
58260;SDS011;44058;52.898;6.502;2023-04-25T00:27:03;17.05;;;3.47;;
58260;SDS011;44058;52.898;6.502;2023-04-25T00:29:29;14.15;;;3.63;;
58260;SDS011;44058;52.898;6.502;2023-04-25T00:31:55;12.65;;;3.58;;
58260;SDS011;44058;52.898;6.502;2023-04-25T00:34:21;12.23;;;3.22;;
58260;SDS011;44058;52.898;6.502;2023-04-25T00:36:48;16.20;;;3.47;;
58260;SDS011;44058;52.898;6.502;2023-04-25T00:39:14;11.15;;;3.05;;
58260;SDS011;44058;52.898;6.502;2023-04-25T00:41:40;13.93;;;3.58;;
58260;SDS011;44058;52.898;6.502;2023-04-25T00:44:07;11.32;;;2.70;;
58260;SDS011;44058;52.898;6.502;2023-04-25T00:46:36;17.17;;;3.70;;
58260;SDS011;44058;52.898;6.502;2023-04-25T00:49:02;11.63;;;2.85;;
58260;SDS011;44058;52.898;6.502;2023-04-25T00:51:29;15.00;;;3.60;;
58260;SDS011;44058;52.898;6.502;2023-04-25T00:53:55;16.60;;;3.75;;
58260;SDS011;44058;52.898;6.502;2023-04-25T00:56:21;12.45;;;3.08;;
58260;SDS011;44058;52.898;6.502;2023-04-25T00:58:47;10.73;;;3.35;;
58260;SDS011;44058;52.898;6.502;2023-04-25T01:01:14;18.55;;;4.30;;
58260;SDS011;44058;52.898;6.502;2023-04-25T01:03:40;13.60;;;3.38;;
58260;SDS011;44058;52.898;6.502;2023-04-25T01:06:09;13.15;;;3.30;;
58260;SDS011;44058;52.898;6.502;2023-04-25T01:08:36;14.20;;;3.53;;
58260;SDS011;44058;52.898;6.502;2023-04-25T01:11:02;10.57;;;3.08;;
58260;SDS011;44058;52.898;6.502;2023-04-25T01:13:29;18.02;;;3.13;;
58260;SDS011;44058;52.898;6.502;2023-04-25T01:15:57;14.27;;;3.13;;
58260;SDS011;44058;52.898;6.502;2023-04-25T01:18:23;6.50;;;3.00;;
58260;SDS011;44058;52.898;6.502;2023-04-25T01:20:52;12.88;;;3.10;;
58260;SDS011;44058;52.898;6.502;2023-04-25T01:23:20;11.13;;;3.17;;
58260;SDS011;44058;52.898;6.502;2023-04-25T01:25:46;12.45;;;3.63;;
58260;SDS011;44058;52.898;6.502;2023-04-25T01:28:13;13.05;;;3.60;;
58260;SDS011;44058;52.898;6.502;2023-04-25T01:30:41;14.80;;;3.20;;
58260;SDS011;44058;52.898;6.502;2023-04-25T01:33:08;14.20;;;3.75;;
58260;SDS011;44058;52.898;6.502;2023-04-25T01:35:34;12.02;;;3.42;;
58260;SDS011;44058;52.898;6.502;2023-04-25T01:38:00;15.02;;;3.25;;
58260;SDS011;44058;52.898;6.502;2023-04-25T01:40:26;14.68;;;3.47;;
58260;SDS011;44058;52.898;6.502;2023-04-25T01:42:53;11.50;;;2.95;;
58260;SDS011;44058;52.898;6.502;2023-04-25T01:45:19;10.38;;;2.67;;
58260;SDS011;44058;52.898;6.502;2023-04-25T01:47:46;15.07;;;3.25;;
58260;SDS011;44058;52.898;6.502;2023-04-25T01:50:14;13.13;;;2.60;;
58260;SDS011;44058;52.898;6.502;2023-04-25T01:52:41;13.75;;;3.10;;
58260;SDS011;44058;52.898;6.502;2023-04-25T01:55:07;13.30;;;3.08;;
58260;SDS011;44058;52.898;6.502;2023-04-25T01:57:33;10.98;;;2.85;;
58260;SDS011;44058;52.898;6.502;2023-04-25T02:00:00;13.45;;;3.40;;
58260;SDS011;44058;52.898;6.502;2023-04-25T02:02:27;13.18;;;3.20;;
58260;SDS011;44058;52.898;6.502;2023-04-25T02:04:54;15.82;;;3.47;;
58260;SDS011;44058;52.898;6.502;2023-04-25T02:07:21;11.13;;;3.08;;
58260;SDS011;44058;52.898;6.502;2023-04-25T02:09:47;14.25;;;2.80;;
58260;SDS011;44058;52.898;6.502;2023-04-25T02:12:13;10.30;;;2.55;;
58260;SDS011;44058;52.898;6.502;2023-04-25T02:14:39;14.30;;;2.97;;
58260;SDS011;44058;52.898;6.502;2023-04-25T02:17:05;10.40;;;2.42;;
58260;SDS011;44058;52.898;6.502;2023-04-25T02:19:32;11.80;;;2.30;;
58260;SDS011;44058;52.898;6.502;2023-04-25T02:21:58;13.85;;;2.95;;
58260;SDS011;44058;52.898;6.502;2023-04-25T02:24:24;12.45;;;2.58;;
58260;SDS011;44058;52.898;6.502;2023-04-25T02:26:52;12.82;;;2.53;;
58260;SDS011;44058;52.898;6.502;2023-04-25T02:29:20;9.35;;;2.50;;
58260;SDS011;44058;52.898;6.502;2023-04-25T02:31:47;10.90;;;2.30;;
58260;SDS011;44058;52.898;6.502;2023-04-25T02:34:13;12.80;;;3.08;;
58260;SDS011;44058;52.898;6.502;2023-04-25T02:36:39;13.45;;;3.00;;
58260;SDS011;44058;52.898;6.502;2023-04-25T02:39:06;14.60;;;2.80;;
58260;SDS011;44058;52.898;6.502;2023-04-25T02:41:32;11.18;;;2.58;;
58260;SDS011;44058;52.898;6.502;2023-04-25T02:43:58;12.05;;;3.38;;
58260;SDS011;44058;52.898;6.502;2023-04-25T02:46:24;14.20;;;2.63;;
58260;SDS011;44058;52.898;6.502;2023-04-25T02:48:50;9.52;;;2.47;;
58260;SDS011;44058;52.898;6.502;2023-04-25T02:51:16;14.00;;;2.92;;
58260;SDS011;44058;52.898;6.502;2023-04-25T02:53:42;14.65;;;2.53;;
58260;SDS011;44058;52.898;6.502;2023-04-25T02:56:08;9.43;;;1.95;;
58260;SDS011;44058;52.898;6.502;2023-04-25T02:58:34;9.52;;;2.00;;
58260;SDS011;44058;52.898;6.502;2023-04-25T03:01:00;15.50;;;2.45;;
58260;SDS011;44058;52.898;6.502;2023-04-25T03:03:27;12.20;;;2.45;;
58260;SDS011;44058;52.898;6.502;2023-04-25T03:05:53;10.73;;;2.47;;
58260;SDS011;44058;52.898;6.502;2023-04-25T03:08:19;15.23;;;2.35;;
58260;SDS011;44058;52.898;6.502;2023-04-25T03:10:45;10.70;;;2.20;;
58260;SDS011;44058;52.898;6.502;2023-04-25T03:13:11;12.77;;;2.55;;
58260;SDS011;44058;52.898;6.502;2023-04-25T03:15:37;11.13;;;2.13;;
58260;SDS011;44058;52.898;6.502;2023-04-25T03:18:03;9.20;;;2.38;;
58260;SDS011;44058;52.898;6.502;2023-04-25T03:20:29;9.23;;;2.22;;
58260;SDS011;44058;52.898;6.502;2023-04-25T03:22:56;6.85;;;2.05;;
58260;SDS011;44058;52.898;6.502;2023-04-25T03:25:22;5.15;;;1.70;;
58260;SDS011;44058;52.898;6.502;2023-04-25T03:27:48;8.95;;;1.98;;
58260;SDS011;44058;52.898;6.502;2023-04-25T03:30:14;6.72;;;1.20;;
58260;SDS011;44058;52.898;6.502;2023-04-25T03:32:41;5.60;;;1.15;;
58260;SDS011;44058;52.898;6.502;2023-04-25T03:35:07;7.65;;;1.50;;
58260;SDS011;44058;52.898;6.502;2023-04-25T03:37:33;6.07;;;1.20;;
58260;SDS011;44058;52.898;6.502;2023-04-25T03:40:00;9.20;;;1.67;;
58260;SDS011;44058;52.898;6.502;2023-04-25T03:42:26;4.32;;;1.00;;
58260;SDS011;44058;52.898;6.502;2023-04-25T03:44:52;5.22;;;1.25;;
58260;SDS011;44058;52.898;6.502;2023-04-25T03:47:18;4.55;;;1.15;;
58260;SDS011;44058;52.898;6.502;2023-04-25T03:49:44;6.47;;;1.30;;
58260;SDS011;44058;52.898;6.502;2023-04-25T03:52:10;3.80;;;1.35;;
58260;SDS011;44058;52.898;6.502;2023-04-25T03:54:36;8.25;;;1.88;;
58260;SDS011;44058;52.898;6.502;2023-04-25T03:57:02;3.70;;;0.98;;
58260;SDS011;44058;52.898;6.502;2023-04-25T03:59:28;5.97;;;1.17;;
58260;SDS011;44058;52.898;6.502;2023-04-25T04:01:55;4.60;;;1.00;;
58260;SDS011;44058;52.898;6.502;2023-04-25T04:04:21;4.35;;;0.90;;
58260;SDS011;44058;52.898;6.502;2023-04-25T04:06:47;4.88;;;1.25;;
58260;SDS011;44058;52.898;6.502;2023-04-25T04:09:13;6.47;;;0.98;;
58260;SDS011;44058;52.898;6.502;2023-04-25T04:11:40;7.80;;;1.77;;
58260;SDS011;44058;52.898;6.502;2023-04-25T04:14:06;4.32;;;1.30;;
58260;SDS011;44058;52.898;6.502;2023-04-25T04:16:33;4.63;;;1.20;;
58260;SDS011;44058;52.898;6.502;2023-04-25T04:18:59;6.95;;;1.35;;
58260;SDS011;44058;52.898;6.502;2023-04-25T04:21:25;8.20;;;1.75;;
58260;SDS011;44058;52.898;6.502;2023-04-25T04:23:52;4.32;;;1.27;;
58260;SDS011;44058;52.898;6.502;2023-04-25T04:26:19;4.90;;;1.40;;
58260;SDS011;44058;52.898;6.502;2023-04-25T04:28:48;5.90;;;1.02;;
58260;SDS011;44058;52.898;6.502;2023-04-25T04:31:16;6.95;;;1.27;;
58260;SDS011;44058;52.898;6.502;2023-04-25T04:33:45;4.95;;;1.65;;
58260;SDS011;44058;52.898;6.502;2023-04-25T04:36:11;5.10;;;1.20;;
58260;SDS011;44058;52.898;6.502;2023-04-25T04:38:38;8.50;;;1.45;;
58260;SDS011;44058;52.898;6.502;2023-04-25T04:41:05;8.57;;;1.27;;
58260;SDS011;44058;52.898;6.502;2023-04-25T04:43:31;8.52;;;1.80;;
58260;SDS011;44058;52.898;6.502;2023-04-25T04:46:00;5.68;;;1.02;;
58260;SDS011;44058;52.898;6.502;2023-04-25T04:48:26;3.70;;;1.30;;
58260;SDS011;44058;52.898;6.502;2023-04-25T04:50:53;5.97;;;1.40;;
58260;SDS011;44058;52.898;6.502;2023-04-25T04:53:19;5.88;;;1.70;;
58260;SDS011;44058;52.898;6.502;2023-04-25T04:55:45;6.55;;;1.42;;
58260;SDS011;44058;52.898;6.502;2023-04-25T04:58:11;5.82;;;1.52;;
58260;SDS011;44058;52.898;6.502;2023-04-25T05:00:37;5.63;;;1.38;;
58260;SDS011;44058;52.898;6.502;2023-04-25T05:03:03;10.40;;;1.60;;
58260;SDS011;44058;52.898;6.502;2023-04-25T05:05:30;6.68;;;1.60;;
58260;SDS011;44058;52.898;6.502;2023-04-25T05:07:56;9.32;;;1.35;;
58260;SDS011;44058;52.898;6.502;2023-04-25T05:10:22;7.38;;;1.45;;
58260;SDS011;44058;52.898;6.502;2023-04-25T05:12:48;9.18;;;1.58;;
58260;SDS011;44058;52.898;6.502;2023-04-25T05:15:14;5.32;;;1.45;;
58260;SDS011;44058;52.898;6.502;2023-04-25T05:17:41;7.35;;;2.22;;
58260;SDS011;44058;52.898;6.502;2023-04-25T05:20:07;9.55;;;1.65;;
58260;SDS011;44058;52.898;6.502;2023-04-25T05:22:34;9.52;;;2.28;;
58260;SDS011;44058;52.898;6.502;2023-04-25T05:25:00;6.35;;;1.27;;
58260;SDS011;44058;52.898;6.502;2023-04-25T05:27:27;3.90;;;1.35;;
58260;SDS011;44058;52.898;6.502;2023-04-25T05:29:53;7.25;;;1.75;;
58260;SDS011;44058;52.898;6.502;2023-04-25T05:32:19;7.53;;;1.80;;
58260;SDS011;44058;52.898;6.502;2023-04-25T05:34:47;5.70;;;1.50;;
58260;SDS011;44058;52.898;6.502;2023-04-25T05:37:14;5.32;;;1.38;;
58260;SDS011;44058;52.898;6.502;2023-04-25T05:39:40;6.38;;;1.75;;
58260;SDS011;44058;52.898;6.502;2023-04-25T05:42:06;9.60;;;1.95;;
58260;SDS011;44058;52.898;6.502;2023-04-25T05:44:32;9.23;;;1.90;;
58260;SDS011;44058;52.898;6.502;2023-04-25T05:46:58;6.97;;;1.95;;
58260;SDS011;44058;52.898;6.502;2023-04-25T05:49:24;8.10;;;1.70;;
58260;SDS011;44058;52.898;6.502;2023-04-25T05:51:50;5.53;;;1.50;;
58260;SDS011;44058;52.898;6.502;2023-04-25T05:54:16;8.70;;;1.33;;
58260;SDS011;44058;52.898;6.502;2023-04-25T05:56:43;8.27;;;1.60;;
58260;SDS011;44058;52.898;6.502;2023-04-25T05:59:09;7.07;;;1.60;;
58260;SDS011;44058;52.898;6.502;2023-04-25T06:01:35;16.52;;;2.75;;
58260;SDS011;44058;52.898;6.502;2023-04-25T06:04:01;8.70;;;1.70;;
58260;SDS011;44058;52.898;6.502;2023-04-25T06:06:27;9.20;;;1.90;;
58260;SDS011;44058;52.898;6.502;2023-04-25T06:08:53;8.50;;;1.70;;
58260;SDS011;44058;52.898;6.502;2023-04-25T06:11:20;9.15;;;2.22;;
58260;SDS011;44058;52.898;6.502;2023-04-25T06:13:46;6.00;;;1.40;;
58260;SDS011;44058;52.898;6.502;2023-04-25T06:16:12;6.07;;;1.33;;
58260;SDS011;44058;52.898;6.502;2023-04-25T06:18:38;6.63;;;1.60;;
58260;SDS011;44058;52.898;6.502;2023-04-25T06:21:04;11.07;;;1.73;;
58260;SDS011;44058;52.898;6.502;2023-04-25T06:23:31;7.25;;;1.80;;
58260;SDS011;44058;52.898;6.502;2023-04-25T06:25:57;3.95;;;1.20;;
58260;SDS011;44058;52.898;6.502;2023-04-25T06:28:23;5.88;;;1.73;;
58260;SDS011;44058;52.898;6.502;2023-04-25T06:30:49;8.98;;;1.60;;
58260;SDS011;44058;52.898;6.502;2023-04-25T06:33:15;10.88;;;2.55;;
58260;SDS011;44058;52.898;6.502;2023-04-25T06:35:42;7.65;;;1.63;;
58260;SDS011;44058;52.898;6.502;2023-04-25T06:38:08;6.05;;;1.70;;
58260;SDS011;44058;52.898;6.502;2023-04-25T06:40:34;6.07;;;1.50;;
58260;SDS011;44058;52.898;6.502;2023-04-25T06:43:00;7.47;;;1.70;;
58260;SDS011;44058;52.898;6.502;2023-04-25T06:45:26;5.57;;;1.83;;
58260;SDS011;44058;52.898;6.502;2023-04-25T06:47:53;6.13;;;1.60;;
58260;SDS011;44058;52.898;6.502;2023-04-25T06:50:19;6.38;;;2.03;;
58260;SDS011;44058;52.898;6.502;2023-04-25T06:52:45;8.10;;;1.50;;
58260;SDS011;44058;52.898;6.502;2023-04-25T06:55:11;8.80;;;1.45;;
58260;SDS011;44058;52.898;6.502;2023-04-25T06:57:37;4.95;;;1.73;;
58260;SDS011;44058;52.898;6.502;2023-04-25T07:00:03;5.53;;;1.30;;
58260;SDS011;44058;52.898;6.502;2023-04-25T07:02:30;7.05;;;1.70;;
58260;SDS011;44058;52.898;6.502;2023-04-25T07:04:56;6.05;;;1.55;;
58260;SDS011;44058;52.898;6.502;2023-04-25T07:07:25;9.30;;;1.75;;
58260;SDS011;44058;52.898;6.502;2023-04-25T07:09:51;5.50;;;1.50;;
58260;SDS011;44058;52.898;6.502;2023-04-25T07:12:17;6.60;;;1.67;;
58260;SDS011;44058;52.898;6.502;2023-04-25T07:14:43;6.55;;;1.27;;
58260;SDS011;44058;52.898;6.502;2023-04-25T07:17:09;5.18;;;1.50;;
58260;SDS011;44058;52.898;6.502;2023-04-25T07:19:35;6.50;;;1.50;;
58260;SDS011;44058;52.898;6.502;2023-04-25T07:22:02;5.15;;;1.38;;
58260;SDS011;44058;52.898;6.502;2023-04-25T07:24:28;6.30;;;1.20;;
58260;SDS011;44058;52.898;6.502;2023-04-25T07:26:55;5.97;;;1.20;;
58260;SDS011;44058;52.898;6.502;2023-04-25T07:29:21;4.95;;;1.40;;
58260;SDS011;44058;52.898;6.502;2023-04-25T07:31:47;6.05;;;1.00;;
58260;SDS011;44058;52.898;6.502;2023-04-25T07:34:13;6.85;;;1.27;;
58260;SDS011;44058;52.898;6.502;2023-04-25T07:36:40;4.95;;;0.80;;
58260;SDS011;44058;52.898;6.502;2023-04-25T07:39:06;3.63;;;1.05;;
58260;SDS011;44058;52.898;6.502;2023-04-25T07:41:34;4.03;;;0.85;;
58260;SDS011;44058;52.898;6.502;2023-04-25T07:44:00;4.68;;;1.00;;
58260;SDS011;44058;52.898;6.502;2023-04-25T07:46:26;4.00;;;1.08;;
58260;SDS011;44058;52.898;6.502;2023-04-25T07:48:52;7.05;;;1.35;;
58260;SDS011;44058;52.898;6.502;2023-04-25T07:51:18;5.28;;;1.40;;
58260;SDS011;44058;52.898;6.502;2023-04-25T07:53:45;3.83;;;0.80;;
58260;SDS011;44058;52.898;6.502;2023-04-25T07:56:11;4.47;;;0.70;;
58260;SDS011;44058;52.898;6.502;2023-04-25T07:58:37;2.30;;;0.80;;
58260;SDS011;44058;52.898;6.502;2023-04-25T08:01:03;6.10;;;1.30;;
58260;SDS011;44058;52.898;6.502;2023-04-25T08:03:30;4.82;;;1.00;;
58260;SDS011;44058;52.898;6.502;2023-04-25T08:05:56;6.45;;;1.15;;
58260;SDS011;44058;52.898;6.502;2023-04-25T08:08:22;3.80;;;0.90;;
58260;SDS011;44058;52.898;6.502;2023-04-25T08:10:48;5.03;;;1.10;;
58260;SDS011;44058;52.898;6.502;2023-04-25T08:13:14;6.50;;;1.63;;
58260;SDS011;44058;52.898;6.502;2023-04-25T08:15:40;6.53;;;1.30;;
58260;SDS011;44058;52.898;6.502;2023-04-25T08:18:06;5.85;;;1.30;;
58260;SDS011;44058;52.898;6.502;2023-04-25T08:20:33;3.63;;;1.05;;
58260;SDS011;44058;52.898;6.502;2023-04-25T08:22:59;8.45;;;1.30;;
58260;SDS011;44058;52.898;6.502;2023-04-25T08:25:25;5.60;;;1.40;;
58260;SDS011;44058;52.898;6.502;2023-04-25T08:27:51;6.32;;;1.60;;
58260;SDS011;44058;52.898;6.502;2023-04-25T08:30:17;7.68;;;1.45;;
58260;SDS011;44058;52.898;6.502;2023-04-25T08:32:44;7.82;;;1.20;;
58260;SDS011;44058;52.898;6.502;2023-04-25T08:35:10;5.55;;;1.17;;
58260;SDS011;44058;52.898;6.502;2023-04-25T08:37:37;3.47;;;1.10;;
58260;SDS011;44058;52.898;6.502;2023-04-25T08:40:03;6.38;;;1.10;;
58260;SDS011;44058;52.898;6.502;2023-04-25T08:42:33;3.75;;;1.20;;
58260;SDS011;44058;52.898;6.502;2023-04-25T08:45:01;4.68;;;1.30;;
58260;SDS011;44058;52.898;6.502;2023-04-25T08:47:28;7.35;;;1.17;;
58260;SDS011;44058;52.898;6.502;2023-04-25T08:49:55;6.88;;;1.38;;
58260;SDS011;44058;52.898;6.502;2023-04-25T08:52:24;6.97;;;1.40;;
58260;SDS011;44058;52.898;6.502;2023-04-25T08:54:53;6.13;;;0.85;;
58260;SDS011;44058;52.898;6.502;2023-04-25T08:57:20;6.10;;;1.17;;
58260;SDS011;44058;52.898;6.502;2023-04-25T08:59:46;3.88;;;1.00;;
58260;SDS011;44058;52.898;6.502;2023-04-25T09:02:13;5.70;;;1.17;;
58260;SDS011;44058;52.898;6.502;2023-04-25T09:04:44;4.87;;;1.13;;
58260;SDS011;44058;52.898;6.502;2023-04-25T09:09:36;3.80;;;1.23;;
58260;SDS011;44058;52.898;6.502;2023-04-25T09:12:02;5.00;;;0.80;;
58260;SDS011;44058;52.898;6.502;2023-04-25T09:14:28;3.47;;;0.85;;
58260;SDS011;44058;52.898;6.502;2023-04-25T09:19:25;4.40;;;1.10;;
58260;SDS011;44058;52.898;6.502;2023-04-25T09:21:55;2.95;;;0.70;;
58260;SDS011;44058;52.898;6.502;2023-04-25T09:26:57;4.65;;;0.75;;
58260;SDS011;44058;52.898;6.502;2023-04-25T09:29:30;4.53;;;1.20;;
58260;SDS011;44058;52.898;6.502;2023-04-25T09:34:41;3.55;;;0.88;;
58260;SDS011;44058;52.898;6.502;2023-04-25T09:37:11;2.83;;;0.98;;
58260;SDS011;44058;52.898;6.502;2023-04-25T09:39:38;2.80;;;0.60;;
58260;SDS011;44058;52.898;6.502;2023-04-25T09:42:04;6.05;;;1.20;;
58260;SDS011;44058;52.898;6.502;2023-04-25T09:44:31;4.75;;;1.02;;
58260;SDS011;44058;52.898;6.502;2023-04-25T09:46:57;8.05;;;1.10;;
58260;SDS011;44058;52.898;6.502;2023-04-25T09:49:25;4.97;;;0.90;;
58260;SDS011;44058;52.898;6.502;2023-04-25T09:51:56;6.18;;;1.02;;
58260;SDS011;44058;52.898;6.502;2023-04-25T09:54:25;5.00;;;0.82;;
58260;SDS011;44058;52.898;6.502;2023-04-25T09:56:52;2.65;;;0.90;;
58260;SDS011;44058;52.898;6.502;2023-04-25T09:59:19;2.55;;;0.75;;
58260;SDS011;44058;52.898;6.502;2023-04-25T10:01:46;6.18;;;0.90;;
58260;SDS011;44058;52.898;6.502;2023-04-25T10:04:13;3.65;;;1.08;;
58260;SDS011;44058;52.898;6.502;2023-04-25T10:06:41;5.05;;;0.88;;
58260;SDS011;44058;52.898;6.502;2023-04-25T10:09:08;3.85;;;0.90;;
58260;SDS011;44058;52.898;6.502;2023-04-25T10:11:34;2.60;;;0.70;;
58260;SDS011;44058;52.898;6.502;2023-04-25T10:14:00;6.32;;;1.30;;
58260;SDS011;44058;52.898;6.502;2023-04-25T10:16:27;4.75;;;0.93;;
58260;SDS011;44058;52.898;6.502;2023-04-25T10:18:54;3.83;;;1.00;;
58260;SDS011;44058;52.898;6.502;2023-04-25T10:21:20;5.93;;;1.17;;
58260;SDS011;44058;52.898;6.502;2023-04-25T10:23:48;4.75;;;1.13;;
58260;SDS011;44058;52.898;6.502;2023-04-25T10:26:14;7.43;;;1.15;;
58260;SDS011;44058;52.898;6.502;2023-04-25T10:29:00;4.70;;;1.05;;
58260;SDS011;44058;52.898;6.502;2023-04-25T10:31:27;4.28;;;1.15;;
58260;SDS011;44058;52.898;6.502;2023-04-25T10:33:53;4.22;;;1.13;;
58260;SDS011;44058;52.898;6.502;2023-04-25T10:36:20;8.18;;;1.52;;
58260;SDS011;44058;52.898;6.502;2023-04-25T10:38:48;5.78;;;1.13;;
58260;SDS011;44058;52.898;6.502;2023-04-25T10:41:18;5.35;;;0.95;;
58260;SDS011;44058;52.898;6.502;2023-04-25T10:43:49;6.65;;;1.50;;
58260;SDS011;44058;52.898;6.502;2023-04-25T10:51:24;5.15;;;1.95;;
58260;SDS011;44058;52.898;6.502;2023-04-25T10:54:00;5.78;;;1.52;;
58260;SDS011;44058;52.898;6.502;2023-04-25T10:56:31;5.25;;;1.65;;
58260;SDS011;44058;52.898;6.502;2023-04-25T10:59:16;5.85;;;1.48;;
58260;SDS011;44058;52.898;6.502;2023-04-25T11:01:44;6.72;;;1.40;;
58260;SDS011;44058;52.898;6.502;2023-04-25T11:09:32;6.38;;;2.13;;
58260;SDS011;44058;52.898;6.502;2023-04-25T11:11:59;5.30;;;1.10;;
58260;SDS011;44058;52.898;6.502;2023-04-25T11:14:25;6.70;;;1.17;;
58260;SDS011;44058;52.898;6.502;2023-04-25T11:16:52;6.05;;;1.00;;
58260;SDS011;44058;52.898;6.502;2023-04-25T11:19:20;2.88;;;1.08;;
58260;SDS011;44058;52.898;6.502;2023-04-25T11:21:46;2.53;;;0.80;;
58260;SDS011;44058;52.898;6.502;2023-04-25T11:24:12;4.60;;;0.80;;
58260;SDS011;44058;52.898;6.502;2023-04-25T11:26:41;2.85;;;1.00;;
58260;SDS011;44058;52.898;6.502;2023-04-25T11:29:07;4.72;;;0.95;;
58260;SDS011;44058;52.898;6.502;2023-04-25T11:31:33;2.20;;;0.70;;
58260;SDS011;44058;52.898;6.502;2023-04-25T11:33:59;5.60;;;0.85;;
58260;SDS011;44058;52.898;6.502;2023-04-25T11:36:26;7.05;;;1.00;;
58260;SDS011;44058;52.898;6.502;2023-04-25T11:38:52;4.47;;;0.95;;
58260;SDS011;44058;52.898;6.502;2023-04-25T11:41:20;2.47;;;0.80;;
58260;SDS011;44058;52.898;6.502;2023-04-25T11:43:47;7.72;;;1.20;;
58260;SDS011;44058;52.898;6.502;2023-04-25T11:46:14;3.10;;;0.90;;
58260;SDS011;44058;52.898;6.502;2023-04-25T11:48:40;5.90;;;1.15;;
58260;SDS011;44058;52.898;6.502;2023-04-25T11:51:06;5.35;;;1.00;;
58260;SDS011;44058;52.898;6.502;2023-04-25T11:53:32;5.25;;;1.83;;
58260;SDS011;44058;52.898;6.502;2023-04-25T11:55:59;3.08;;;0.70;;
58260;SDS011;44058;52.898;6.502;2023-04-25T11:58:25;5.28;;;1.08;;
58260;SDS011;44058;52.898;6.502;2023-04-25T12:00:52;6.55;;;1.10;;
58260;SDS011;44058;52.898;6.502;2023-04-25T12:03:18;5.78;;;1.02;;
58260;SDS011;44058;52.898;6.502;2023-04-25T12:05:44;6.65;;;1.10;;
58260;SDS011;44058;52.898;6.502;2023-04-25T12:08:14;4.07;;;1.33;;
58260;SDS011;44058;52.898;6.502;2023-04-25T12:10:41;1.80;;;0.75;;
58260;SDS011;44058;52.898;6.502;2023-04-25T12:13:21;4.03;;;0.90;;
58260;SDS011;44058;52.898;6.502;2023-04-25T12:15:47;5.50;;;1.42;;
58260;SDS011;44058;52.898;6.502;2023-04-25T12:18:14;5.40;;;0.90;;
58260;SDS011;44058;52.898;6.502;2023-04-25T12:20:40;2.60;;;0.80;;
58260;SDS011;44058;52.898;6.502;2023-04-25T12:23:07;3.70;;;1.30;;
58260;SDS011;44058;52.898;6.502;2023-04-25T12:25:40;6.20;;;1.40;;
58260;SDS011;44058;52.898;6.502;2023-04-25T12:28:14;5.05;;;1.38;;
58260;SDS011;44058;52.898;6.502;2023-04-25T12:33:22;6.88;;;1.60;;
58260;SDS011;44058;52.898;6.502;2023-04-25T12:35:48;5.32;;;1.02;;
58260;SDS011;44058;52.898;6.502;2023-04-25T12:38:35;5.75;;;1.23;;
58260;SDS011;44058;52.898;6.502;2023-04-25T12:41:01;7.35;;;1.70;;
58260;SDS011;44058;52.898;6.502;2023-04-25T12:43:28;5.95;;;1.00;;
58260;SDS011;44058;52.898;6.502;2023-04-25T12:45:55;3.95;;;0.90;;
58260;SDS011;44058;52.898;6.502;2023-04-25T12:48:21;5.03;;;1.30;;
58260;SDS011;44058;52.898;6.502;2023-04-25T12:50:48;3.13;;;1.25;;
58260;SDS011;44058;52.898;6.502;2023-04-25T12:53:18;5.25;;;1.25;;
58260;SDS011;44058;52.898;6.502;2023-04-25T12:55:44;7.70;;;1.60;;
58260;SDS011;44058;52.898;6.502;2023-04-25T12:58:17;6.30;;;1.35;;
58260;SDS011;44058;52.898;6.502;2023-04-25T13:00:43;7.65;;;1.20;;
58260;SDS011;44058;52.898;6.502;2023-04-25T13:03:10;3.55;;;0.93;;
58260;SDS011;44058;52.898;6.502;2023-04-25T13:05:37;5.78;;;1.02;;
58260;SDS011;44058;52.898;6.502;2023-04-25T13:08:03;4.90;;;1.00;;
58260;SDS011;44058;52.898;6.502;2023-04-25T13:10:29;3.92;;;1.02;;
58260;SDS011;44058;52.898;6.502;2023-04-25T13:12:55;6.72;;;1.85;;
58260;SDS011;44058;52.898;6.502;2023-04-25T13:15:22;3.42;;;1.27;;
58260;SDS011;44058;52.898;6.502;2023-04-25T13:17:48;6.35;;;1.10;;
58260;SDS011;44058;52.898;6.502;2023-04-25T13:20:14;5.65;;;1.45;;
58260;SDS011;44058;52.898;6.502;2023-04-25T13:22:42;4.47;;;1.35;;
58260;SDS011;44058;52.898;6.502;2023-04-25T13:25:10;4.10;;;1.10;;
58260;SDS011;44058;52.898;6.502;2023-04-25T13:27:36;5.53;;;1.23;;
58260;SDS011;44058;52.898;6.502;2023-04-25T13:30:04;6.63;;;1.17;;
58260;SDS011;44058;52.898;6.502;2023-04-25T13:32:38;3.47;;;1.38;;
58260;SDS011;44058;52.898;6.502;2023-04-25T13:35:04;6.20;;;1.15;;
58260;SDS011;44058;52.898;6.502;2023-04-25T13:37:33;8.38;;;1.92;;
58260;SDS011;44058;52.898;6.502;2023-04-25T13:40:00;8.10;;;1.35;;
58260;SDS011;44058;52.898;6.502;2023-04-25T13:42:27;4.85;;;1.33;;
58260;SDS011;44058;52.898;6.502;2023-04-25T13:44:54;5.20;;;1.20;;
58260;SDS011;44058;52.898;6.502;2023-04-25T13:47:20;6.07;;;1.50;;
58260;SDS011;44058;52.898;6.502;2023-04-25T13:49:46;5.70;;;2.03;;
58260;SDS011;44058;52.898;6.502;2023-04-25T13:52:12;6.32;;;1.10;;
58260;SDS011;44058;52.898;6.502;2023-04-25T13:54:38;4.22;;;1.10;;
58260;SDS011;44058;52.898;6.502;2023-04-25T13:57:05;3.67;;;0.90;;
58260;SDS011;44058;52.898;6.502;2023-04-25T13:59:31;5.45;;;1.10;;
58260;SDS011;44058;52.898;6.502;2023-04-25T14:01:58;2.65;;;0.90;;
58260;SDS011;44058;52.898;6.502;2023-04-25T14:04:24;5.70;;;1.08;;
58260;SDS011;44058;52.898;6.502;2023-04-25T14:06:50;3.50;;;0.82;;
58260;SDS011;44058;52.898;6.502;2023-04-25T14:09:17;4.43;;;1.00;;
58260;SDS011;44058;52.898;6.502;2023-04-25T14:11:43;6.82;;;1.80;;
58260;SDS011;44058;52.898;6.502;2023-04-25T14:14:09;5.20;;;1.20;;
58260;SDS011;44058;52.898;6.502;2023-04-25T14:16:37;4.90;;;1.13;;
58260;SDS011;44058;52.898;6.502;2023-04-25T14:19:03;4.45;;;0.90;;
58260;SDS011;44058;52.898;6.502;2023-04-25T14:21:29;4.30;;;1.02;;
58260;SDS011;44058;52.898;6.502;2023-04-25T14:23:58;3.58;;;1.20;;
58260;SDS011;44058;52.898;6.502;2023-04-25T14:26:24;7.28;;;1.35;;
58260;SDS011;44058;52.898;6.502;2023-04-25T14:28:51;4.75;;;1.30;;
58260;SDS011;44058;52.898;6.502;2023-04-25T14:31:17;5.43;;;1.33;;
58260;SDS011;44058;52.898;6.502;2023-04-25T14:33:43;3.25;;;1.00;;
58260;SDS011;44058;52.898;6.502;2023-04-25T14:36:10;7.30;;;1.92;;
58260;SDS011;44058;52.898;6.502;2023-04-25T14:38:36;5.43;;;1.05;;
58260;SDS011;44058;52.898;6.502;2023-04-25T14:41:03;5.43;;;1.02;;
58260;SDS011;44058;52.898;6.502;2023-04-25T14:43:29;5.65;;;1.58;;
58260;SDS011;44058;52.898;6.502;2023-04-25T14:45:56;4.93;;;1.38;;
58260;SDS011;44058;52.898;6.502;2023-04-25T14:48:22;8.10;;;1.52;;
58260;SDS011;44058;52.898;6.502;2023-04-25T14:50:48;4.57;;;1.20;;
58260;SDS011;44058;52.898;6.502;2023-04-25T14:53:14;5.78;;;1.20;;
58260;SDS011;44058;52.898;6.502;2023-04-25T14:55:40;4.75;;;1.40;;
58260;SDS011;44058;52.898;6.502;2023-04-25T14:58:07;9.70;;;1.95;;
58260;SDS011;44058;52.898;6.502;2023-04-25T15:00:33;5.30;;;1.30;;
58260;SDS011;44058;52.898;6.502;2023-04-25T15:02:59;6.72;;;1.90;;
58260;SDS011;44058;52.898;6.502;2023-04-25T15:05:25;5.45;;;0.88;;